createdAt,value
2019-04-11T00:00:54.132Z,51.92
2019-04-11T00:01:54.242Z,51.83
2019-04-11T00:02:54.988Z,51.4
2019-04-11T00:03:54.050Z,51.72
2019-04-11T00:04:54.647Z,51.63
2019-04-11T00:05:54.891Z,51.23
2019-04-11T00:06:54.095Z,51.77
2019-04-11T00:07:54.286Z,51.95
2019-04-11T00:08:54.328Z,51.69
2019-04-11T00:09:54.632Z,51.34
2019-04-11T00:10:54.071Z,51.42
2019-04-11T00:11:54.426Z,51.36
2019-04-11T00:12:54.807Z,51.47
2019-04-11T00:13:54.025Z,51.98
2019-04-11T00:14:54.011Z,51.32
2019-04-11T00:15:54.975Z,51.37
2019-04-11T00:16:55.399Z,51.41
2019-04-11T00:17:54.393Z,51.52
2019-04-11T00:18:54.702Z,51.4
2019-04-11T00:19:54.006Z,51.35
2019-04-11T00:20:54.050Z,51.66
2019-04-11T00:21:55.133Z,51.34
2019-04-11T00:22:54.271Z,51.87
2019-04-11T00:23:54.786Z,51.35
2019-04-11T00:24:54.057Z,51.9
2019-04-11T00:25:54.039Z,52.04
2019-04-11T00:26:54.872Z,51.57
2019-04-11T00:27:54.665Z,52.21
2019-04-11T00:28:54.241Z,51.9
2019-04-11T00:29:54.028Z,52.19
2019-04-11T00:30:54.658Z,51.88
2019-04-11T00:31:54.891Z,52.15
2019-04-11T00:32:54.014Z,52.46
2019-04-11T00:33:54.886Z,52.34
2019-04-11T00:34:55.029Z,52.54
2019-04-11T00:35:54.043Z,52.37
2019-04-11T00:36:54.854Z,52.97
2019-04-11T00:37:53.981Z,52.9
2019-04-11T00:38:54.964Z,52.78
2019-04-11T00:39:54.165Z,52.26
2019-04-11T00:40:54.772Z,52
2019-04-11T00:41:54.366Z,52.49
2019-04-11T00:42:54.698Z,52.64
2019-04-11T00:43:54.613Z,52.82
2019-04-11T00:44:54.957Z,52.11
2019-04-11T00:45:54.114Z,52.34
2019-04-11T00:46:54.015Z,52.06
2019-04-11T00:47:54.038Z,51.84
2019-04-11T00:48:54.455Z,52.11
2019-04-11T00:49:54.701Z,52.21
2019-04-11T00:50:53.993Z,52.75
2019-04-11T00:51:54.037Z,52.58
2019-04-11T00:52:54.019Z,52.56
2019-04-11T00:53:54.183Z,52.83
2019-04-11T00:54:53.973Z,53.12
2019-04-11T00:55:54.019Z,53.52
2019-04-11T00:56:54.687Z,53.07
2019-04-11T00:57:54.864Z,52.02
2019-04-11T00:58:54.049Z,52.6
2019-04-11T00:59:54.325Z,52.83
2019-04-11T01:00:53.970Z,52.58
2019-04-11T01:01:54.133Z,52.72
2019-04-11T01:02:54.043Z,52.61
2019-04-11T01:03:55.679Z,53.34
2019-04-11T01:04:53.974Z,52.44
2019-04-11T01:05:55.219Z,52.99
2019-04-11T01:06:54.323Z,53.05
2019-04-11T01:07:53.967Z,52.8
2019-04-11T01:08:54.047Z,52.87
2019-04-11T01:09:54.800Z,52.96
2019-04-11T01:10:54.977Z,52.32
2019-04-11T01:11:54.292Z,53.05
2019-04-11T01:12:54.145Z,53.34
2019-04-11T01:13:55.434Z,53.34
2019-04-11T01:14:55.206Z,53.3
2019-04-11T01:15:54.446Z,53.39
2019-04-11T01:16:53.964Z,53.68
2019-04-11T01:17:53.973Z,53.76
2019-04-11T01:18:55.196Z,53.22
2019-04-11T01:19:55.176Z,53.65
2019-04-11T01:20:53.977Z,53.8
2019-04-11T01:21:54.929Z,54.31
2019-04-11T01:22:54.321Z,54.12
2019-04-11T01:23:54.028Z,53.22
2019-04-11T01:24:53.944Z,53.57
2019-04-11T01:25:54.907Z,53.46
2019-04-11T01:26:55.222Z,53.89
2019-04-11T01:27:54.265Z,54.11
2019-04-11T01:28:55.428Z,54.4
2019-04-11T01:29:53.959Z,54.31
2019-04-11T01:30:53.962Z,54.38
2019-04-11T01:31:54.059Z,54.87
2019-04-11T01:32:54.854Z,55.34
2019-04-11T01:33:53.950Z,55.13
2019-04-11T01:34:54.976Z,55.53
2019-04-11T01:35:53.942Z,55.64
2019-04-11T01:36:54.010Z,56.08
2019-04-11T01:37:53.923Z,55.54
2019-04-11T01:38:54.773Z,55.52
2019-04-11T01:39:53.998Z,55.77
2019-04-11T01:40:54.069Z,56.1
2019-04-11T01:41:55.145Z,56.41
2019-04-11T01:42:53.935Z,56.31
2019-04-11T01:44:00.576Z,56.56
2019-04-11T01:44:54.796Z,56.46
2019-04-11T01:45:53.912Z,56.74
2019-04-11T01:46:54.177Z,56.64
2019-04-11T01:47:53.923Z,58.17
2019-04-11T01:48:53.929Z,58.97
2019-04-11T01:49:54.533Z,58.52
2019-04-11T01:50:53.927Z,58.42
2019-04-11T01:51:53.995Z,58.03
2019-04-11T01:52:54.891Z,57.92
2019-04-11T01:53:53.961Z,58.54
2019-04-11T01:54:54.175Z,58.97
2019-04-11T01:55:53.919Z,58.9
2019-04-11T01:56:53.916Z,58.75
2019-04-11T01:57:54.101Z,59.25
2019-04-11T01:58:55.198Z,59.9
2019-04-11T01:59:53.895Z,59.75
2019-04-11T02:00:54.639Z,59.18
2019-04-11T02:01:54.876Z,59.15
2019-04-11T02:02:54.894Z,59.76
2019-04-11T02:03:54.946Z,60.1
2019-04-11T02:04:54.361Z,60.23
2019-04-11T02:05:53.932Z,60.02
2019-04-11T02:06:54.304Z,60.4
2019-04-11T02:07:53.902Z,60.79
2019-04-11T02:08:53.886Z,60.63
2019-04-11T02:09:54.718Z,60.27
2019-04-11T02:10:53.967Z,60.25
2019-04-11T02:11:54.055Z,60.89
2019-04-11T02:12:53.855Z,60.87
2019-04-11T02:14:04.983Z,60.71
2019-04-11T02:14:53.884Z,60.81
2019-04-11T02:15:56.790Z,61.46
2019-04-11T02:16:53.882Z,61.6
2019-04-11T02:17:55.030Z,61.72
2019-04-11T02:18:54.029Z,61.61
2019-04-11T02:19:53.882Z,61.77
2019-04-11T02:20:54.319Z,61.56
2019-04-11T02:21:53.862Z,62.21
2019-04-11T02:22:54.935Z,62.86
2019-04-11T02:23:53.875Z,62.63
2019-04-11T02:24:54.286Z,62.28
2019-04-11T02:25:54.513Z,62.12
2019-04-11T02:26:54.604Z,62.81
2019-04-11T02:27:54.337Z,63
2019-04-11T02:28:55.171Z,62.83
2019-04-11T02:29:55.013Z,62.43
2019-04-11T02:30:55.688Z,63
2019-04-11T02:31:54.949Z,62.69
2019-04-11T02:32:53.857Z,62.51
2019-04-11T02:33:55.226Z,62.33
2019-04-11T02:34:56.940Z,62.24
2019-04-11T02:35:54.336Z,62.18
2019-04-11T02:36:55.807Z,63.06
2019-04-11T02:37:54.873Z,62.84
2019-04-11T02:38:56.969Z,62.99
2019-04-11T02:39:55.726Z,63.01
2019-04-11T02:40:55.017Z,63.54
2019-04-11T02:41:54.868Z,63.82
2019-04-11T02:42:54.847Z,63.71
2019-04-11T02:43:54.987Z,63.28
2019-04-11T02:45:08.961Z,63.19
2019-04-11T02:46:08.716Z,62.99
2019-04-11T02:47:01.595Z,62.68
2019-04-11T02:47:55.853Z,62.57
2019-04-11T02:48:54.483Z,63.35
2019-04-11T02:49:55.027Z,63.15
2019-04-11T02:50:56.468Z,62.94
2019-04-11T02:51:55.688Z,63.34
2019-04-11T02:52:54.025Z,63.01
2019-04-11T02:53:54.948Z,63.16
2019-04-11T02:54:54.498Z,62.92
2019-04-11T02:55:54.235Z,63.54
2019-04-11T02:56:54.770Z,64.02
2019-04-11T02:57:54.299Z,63.94
2019-04-11T02:58:54.507Z,64.27
2019-04-11T02:59:55.908Z,63.85
2019-04-11T03:00:55.840Z,63.55
2019-04-11T03:01:53.830Z,63.57
2019-04-11T03:02:53.835Z,63.48
2019-04-11T03:03:54.528Z,64.41
2019-04-11T03:04:55.489Z,64.13
2019-04-11T03:05:55.405Z,63.88
2019-04-11T03:06:55.020Z,63.73
2019-04-11T03:07:54.122Z,63.92
2019-04-11T03:08:54.986Z,63.94
2019-04-11T03:09:55.973Z,64.05
2019-04-11T03:10:55.587Z,64.34
2019-04-11T03:11:54.623Z,63.71
2019-04-11T03:12:54.529Z,63.91
2019-04-11T03:13:54.812Z,64.06
2019-04-11T03:15:09.032Z,63.53
2019-04-11T03:16:05.179Z,64.28
2019-04-11T03:17:02.238Z,64.13
2019-04-11T03:17:57.301Z,63.79
2019-04-11T03:19:09.801Z,64.04
2019-04-11T03:20:08.236Z,64.04
2019-04-11T03:20:57.368Z,64.29
2019-04-11T03:21:54.480Z,64.09
2019-04-11T03:22:57.883Z,64.7
2019-04-11T03:23:53.874Z,64.81
2019-04-11T03:24:55.362Z,64.62
2019-04-11T03:25:54.324Z,64.15
2019-04-11T03:26:54.800Z,64.85
2019-04-11T03:27:54.258Z,64.57
2019-04-11T03:28:56.640Z,64.85
2019-04-11T03:29:55.861Z,65.32
2019-04-11T03:31:26.123Z,64.92
2019-04-11T03:33:53.609Z,64.99
2019-04-11T03:34:37.490Z,65.06
2019-04-11T03:36:59.716Z,65.14
2019-04-11T03:37:22.904Z,65.11
2019-04-11T03:38:18.252Z,64.86
2019-04-11T03:39:14.388Z,64.51
2019-04-11T03:40:11.214Z,64.45
2019-04-11T03:41:09.794Z,64.42
2019-04-11T03:42:09.326Z,65.27
2019-04-11T03:43:08.685Z,64.96
2019-04-11T03:44:00.184Z,65.34
2019-04-11T03:45:14.943Z,65.33
2019-04-11T03:46:12.980Z,65.43
2019-04-11T03:47:11.012Z,64.78
2019-04-11T03:48:10.021Z,65.18
2019-04-11T03:49:03.355Z,65.14
2019-04-11T03:50:01.242Z,65.03
2019-04-11T03:50:55.260Z,65.22
2019-04-11T03:51:54.999Z,65.4
2019-04-11T03:52:56.056Z,65.09
2019-04-11T03:53:53.781Z,65.65
2019-04-11T03:54:54.005Z,65.67
2019-04-11T03:55:56.021Z,65.35
2019-04-11T03:56:53.887Z,65.45
2019-04-11T03:57:56.024Z,66.04
2019-04-11T03:58:55.175Z,66.02
2019-04-11T03:59:54.483Z,65.95
2019-04-11T04:00:57.277Z,66.15
2019-04-11T04:01:54.370Z,65.67
2019-04-11T04:02:55.254Z,65.55
2019-04-11T04:03:55.392Z,65.18
2019-04-11T04:04:54.177Z,65.63
2019-04-11T04:05:55.091Z,65.94
2019-04-11T04:06:55.184Z,66.28
2019-04-11T04:07:55.177Z,65.8
2019-04-11T04:08:55.484Z,66.6
2019-04-11T04:09:54.481Z,66.66
2019-04-11T04:10:53.722Z,65.91
2019-04-11T04:11:54.516Z,65.91
2019-04-11T04:12:55.677Z,66.7
2019-04-11T04:13:54.375Z,66.16
2019-04-11T04:14:54.322Z,66.83
2019-04-11T04:16:02.426Z,66.6
2019-04-11T04:16:56.444Z,66.6
2019-04-11T04:17:55.080Z,66.55
2019-04-11T04:18:54.264Z,66.08
2019-04-11T04:19:54.358Z,66.63
2019-04-11T04:20:53.789Z,67.36
2019-04-11T04:21:55.164Z,67.82
2019-04-11T04:22:54.530Z,67.39
2019-04-11T04:23:54.639Z,66.85
2019-04-11T04:24:55.428Z,66.97
2019-04-11T04:25:54.442Z,66.48
2019-04-11T04:26:54.602Z,66.91
2019-04-11T04:27:54.585Z,67.36
2019-04-11T04:28:55.371Z,67.31
2019-04-11T04:29:57.384Z,67.72
2019-04-11T04:30:54.053Z,68.04
2019-04-11T04:31:55.130Z,67.96
2019-04-11T04:32:54.534Z,68.48
2019-04-11T04:33:55.381Z,67.58
2019-04-11T04:34:53.718Z,67.47
2019-04-11T04:35:53.726Z,67.89
2019-04-11T04:36:53.807Z,67.48
2019-04-11T04:37:54.487Z,67.65
2019-04-11T04:38:54.528Z,67.41
2019-04-11T04:40:13.083Z,67.46
2019-04-11T04:41:06.992Z,66.96
2019-04-11T04:42:01.005Z,67.67
2019-04-11T04:42:56.105Z,67.92
2019-04-11T04:43:54.867Z,67.8
2019-04-11T04:44:53.903Z,67.53
2019-04-11T04:46:08.241Z,67.38
2019-04-11T04:47:05.345Z,67.47
2019-04-11T04:47:58.692Z,67.28
2019-04-11T04:48:53.987Z,67.82
2019-04-11T04:49:54.341Z,68.08
2019-04-11T04:50:56.486Z,68.49
2019-04-11T04:51:55.487Z,68.47
2019-04-11T04:52:54.177Z,68.65
2019-04-11T04:53:55.498Z,68.98
2019-04-11T04:54:54.969Z,68.85
2019-04-11T04:55:54.293Z,68.65
2019-04-11T04:56:54.618Z,68
2019-04-11T04:57:55.208Z,68.81
2019-04-11T04:58:54.118Z,68.34
2019-04-11T04:59:55.361Z,69.06
2019-04-11T05:00:56.001Z,68.29
2019-04-11T05:01:55.297Z,68.49
2019-04-11T05:02:54.806Z,68.92
2019-04-11T05:03:54.078Z,68.61
2019-04-11T05:04:54.248Z,68.53
2019-04-11T05:05:55.232Z,68.71
2019-04-11T05:06:54.891Z,68.64
2019-04-11T05:07:53.971Z,68.69
2019-04-11T05:08:53.672Z,68.36
2019-04-11T05:09:54.488Z,69.02
2019-04-11T05:10:53.684Z,69.29
2019-04-11T05:11:55.004Z,68.74
2019-04-11T05:12:54.911Z,68.14
2019-04-11T05:13:54.477Z,68
2019-04-11T05:14:54.123Z,68.25
2019-04-11T05:16:06.746Z,68.75
2019-04-11T05:16:54.564Z,69.46
2019-04-11T05:17:53.624Z,68.78
2019-04-11T05:18:54.628Z,69.15
2019-04-11T05:19:54.399Z,69.09
2019-04-11T05:20:54.713Z,68.67
2019-04-11T05:21:54.109Z,68.69
2019-04-11T05:22:53.909Z,68.2
2019-04-11T05:23:54.222Z,68.23
2019-04-11T05:24:53.945Z,68.56
2019-04-11T05:25:53.656Z,68.81
2019-04-11T05:26:53.662Z,68.8
2019-04-11T05:27:53.999Z,68.42
2019-04-11T05:28:53.633Z,68.56
2019-04-11T05:29:53.644Z,68.77
2019-04-11T05:30:53.688Z,68.64
2019-04-11T05:31:54.669Z,68.32
2019-04-11T05:32:53.615Z,67.93
2019-04-11T05:33:53.882Z,68.33
2019-04-11T05:34:53.607Z,68.3
2019-04-11T05:35:54.176Z,67.55
2019-04-11T05:36:53.878Z,68.07
2019-04-11T05:37:53.661Z,67.88
2019-04-11T05:38:54.532Z,67.77
2019-04-11T05:39:53.596Z,67.93
2019-04-11T05:40:54.529Z,67.82
2019-04-11T05:41:54.460Z,67.54
2019-04-11T05:42:54.352Z,67.55
2019-04-11T05:43:53.829Z,67.55
2019-04-11T05:44:54.726Z,67.14
2019-04-11T05:45:55.149Z,67.66
2019-04-11T05:46:57.504Z,67.47
2019-04-11T05:47:55.020Z,67.89
2019-04-11T05:48:57.755Z,67.56
2019-04-11T05:49:54.703Z,67.34
2019-04-11T05:50:54.050Z,67.24
2019-04-11T05:51:56.682Z,67.01
2019-04-11T05:52:54.573Z,67.08
2019-04-11T05:53:54.536Z,66.96
2019-04-11T05:54:54.326Z,67.48
2019-04-11T05:55:53.603Z,67.41
2019-04-11T05:56:56.477Z,67.21
2019-04-11T05:57:54.379Z,67.72
2019-04-11T05:58:53.604Z,67.96
2019-04-11T05:59:54.785Z,67.02
2019-04-11T06:00:55.629Z,67.04
2019-04-11T06:01:54.869Z,67.26
2019-04-11T06:02:53.634Z,67.15
2019-04-11T06:03:53.672Z,66.84
2019-04-11T06:04:55.987Z,66.34
2019-04-11T06:05:55.048Z,64.35
2019-04-11T06:06:55.658Z,63.17
2019-04-11T06:07:56.338Z,60.78
2019-04-11T06:08:54.096Z,58.77
2019-04-11T06:09:54.562Z,59.89
2019-04-11T06:10:54.665Z,58.75
2019-04-11T06:11:55.829Z,59.26
2019-04-11T06:12:54.642Z,58.7
2019-04-11T06:13:53.540Z,59.01
2019-04-11T06:14:53.602Z,58.95
2019-04-11T06:15:53.646Z,58.8
2019-04-11T06:16:55.678Z,58.6
2019-04-11T06:17:54.509Z,57.96
2019-04-11T06:18:54.290Z,57.53
2019-04-11T06:19:53.672Z,57.44
2019-04-11T06:20:53.692Z,57.17
2019-04-11T06:21:53.592Z,58.38
2019-04-11T06:22:54.049Z,58.48
2019-04-11T06:23:53.845Z,56.9
2019-04-11T06:24:54.706Z,56.93
2019-04-11T06:25:53.563Z,57.66
2019-04-11T06:26:54.716Z,58.08
2019-04-11T06:27:54.063Z,56.88
2019-04-11T06:28:55.229Z,55.87
2019-04-11T06:29:53.524Z,56.58
2019-04-11T06:30:54.707Z,55.75
2019-04-11T06:31:53.597Z,55.8
2019-04-11T06:32:54.328Z,55.71
2019-04-11T06:33:53.530Z,55.02
2019-04-11T06:34:53.524Z,55.68
2019-04-11T06:35:54.538Z,55.7
2019-04-11T06:36:55.093Z,56.42
2019-04-11T06:37:54.211Z,56.62
2019-04-11T06:38:54.667Z,56.78
2019-04-11T06:39:53.969Z,56.16
2019-04-11T06:40:54.472Z,55.27
2019-04-11T06:41:54.815Z,55.65
2019-04-11T06:42:53.841Z,55.64
2019-04-11T06:43:53.579Z,54.57
2019-04-11T06:44:54.796Z,54.42
2019-04-11T06:45:54.395Z,54.89
2019-04-11T06:46:56.133Z,55.28
2019-04-11T06:47:53.590Z,55.68
2019-04-11T06:48:53.918Z,56.23
2019-04-11T06:49:53.506Z,55.72
2019-04-11T06:50:53.479Z,55.16
2019-04-11T06:51:54.839Z,55.9
2019-04-11T06:52:53.566Z,55.75
2019-04-11T06:53:54.479Z,55.79
2019-04-11T06:54:53.931Z,54.88
2019-04-11T06:55:55.089Z,54.59
2019-04-11T06:56:53.804Z,54.08
2019-04-11T06:57:54.222Z,54.3
2019-04-11T06:58:54.171Z,54.1
2019-04-11T06:59:53.531Z,53.85
2019-04-11T07:00:53.631Z,53.93
2019-04-11T07:01:55.063Z,53.55
2019-04-11T07:02:53.462Z,52.89
2019-04-11T07:03:53.471Z,53.38
2019-04-11T07:04:53.851Z,53.82
2019-04-11T07:05:53.544Z,54.44
2019-04-11T07:06:53.742Z,53.63
2019-04-11T07:07:53.689Z,52.88
2019-04-11T07:08:54.626Z,53.44
2019-04-11T07:09:53.613Z,54.16
2019-04-11T07:10:55.233Z,55.1
2019-04-11T07:11:53.703Z,55.03
2019-04-11T07:12:55.524Z,54.4
2019-04-11T07:13:53.482Z,52.69
2019-04-11T07:14:53.470Z,52.27
2019-04-11T07:15:54.503Z,53.17
2019-04-11T07:17:01.146Z,53.18
2019-04-11T07:17:54.594Z,52.7
2019-04-11T07:18:53.458Z,52.75
2019-04-11T07:19:53.707Z,52.01
2019-04-11T07:20:54.192Z,52.28
2019-04-11T07:21:53.444Z,52.84
2019-04-11T07:22:53.462Z,52.96
2019-04-11T07:23:53.526Z,52.02
2019-04-11T07:24:53.465Z,52
2019-04-11T07:25:53.877Z,52.38
2019-04-11T07:26:54.331Z,52.16
2019-04-11T07:27:53.462Z,52.37
2019-04-11T07:28:54.271Z,53.12
2019-04-11T07:29:54.291Z,53.22
2019-04-11T07:30:53.831Z,52.7
2019-04-11T07:31:54.721Z,52.65
2019-04-11T07:32:53.450Z,53
2019-04-11T07:33:53.957Z,51.63
2019-04-11T07:34:54.356Z,52.41
2019-04-11T07:35:53.501Z,52.52
2019-04-11T07:36:53.609Z,52.28
2019-04-11T07:37:53.468Z,52.54
2019-04-11T07:38:54.419Z,53.06
2019-04-11T07:39:53.432Z,52.87
2019-04-11T07:40:54.597Z,53.26
2019-04-11T07:41:53.434Z,53.61
2019-04-11T07:42:54.377Z,53.38
2019-04-11T07:43:54.240Z,53.4
2019-04-11T07:44:53.420Z,52.36
2019-04-11T07:45:53.697Z,51.62
2019-04-11T07:46:53.717Z,50.3
2019-04-11T07:47:54.781Z,50.71
2019-04-11T07:48:54.744Z,51.17
2019-04-11T07:49:55.278Z,50.93
2019-04-11T07:50:54.996Z,50.97
2019-04-11T07:51:54.323Z,51.24
2019-04-11T07:52:53.720Z,51.71
2019-04-11T07:53:54.577Z,51.35
2019-04-11T07:54:53.684Z,51.57
2019-04-11T07:55:53.435Z,51.52
2019-04-11T07:56:53.484Z,51.82
2019-04-11T07:57:54.596Z,50.7
2019-04-11T07:58:54.306Z,51.36
2019-04-11T07:59:53.458Z,51.4
2019-04-11T08:00:54.451Z,51.14
2019-04-11T08:01:53.416Z,50.97
2019-04-11T08:02:53.386Z,50.61
2019-04-11T08:03:53.659Z,51.15
2019-04-11T08:04:53.704Z,50.75
2019-04-11T08:05:54.638Z,50.71
2019-04-11T08:06:54.273Z,51.1
2019-04-11T08:07:53.447Z,51.25
2019-04-11T08:08:55.786Z,50.64
2019-04-11T08:09:53.400Z,50.84
2019-04-11T08:10:54.575Z,50.51
2019-04-11T08:11:53.376Z,50.22
2019-04-11T08:12:54.300Z,50.39
2019-04-11T08:13:55.075Z,50.67
2019-04-11T08:14:53.357Z,50.01
2019-04-11T08:15:53.712Z,50.99
2019-04-11T08:16:53.364Z,50.64
2019-04-11T08:17:54.306Z,51.18
2019-04-11T08:18:53.354Z,50.51
2019-04-11T08:19:53.375Z,49.88
2019-04-11T08:20:53.376Z,49.65
2019-04-11T08:21:54.310Z,50.63
2019-04-11T08:22:53.353Z,49.29
2019-04-11T08:23:54.150Z,48.93
2019-04-11T08:24:53.534Z,49.95
2019-04-11T08:25:53.700Z,49.97
2019-04-11T08:26:53.601Z,49.95
2019-04-11T08:27:59.928Z,50.41
2019-04-11T08:29:01.091Z,50.06
2019-04-11T08:29:53.373Z,50.67
2019-04-11T08:30:53.374Z,50.07
2019-04-11T08:31:54.616Z,49.78
2019-04-11T08:32:53.865Z,50.04
2019-04-11T08:33:53.334Z,50.54
2019-04-11T08:34:53.479Z,50.09
2019-04-11T08:35:54.903Z,50.47
2019-04-11T08:36:53.337Z,50.4
2019-04-11T08:37:53.958Z,49.37
2019-04-11T08:38:53.345Z,49.81
2019-04-11T08:39:53.456Z,49.19
2019-04-11T08:40:53.418Z,48.75
2019-04-11T08:41:53.387Z,48.74
2019-04-11T08:42:53.341Z,48.99
2019-04-11T08:43:53.331Z,48.91
2019-04-11T08:44:54.197Z,48.37
2019-04-11T08:45:54.290Z,49.2
2019-04-11T08:46:53.921Z,49.33
2019-04-11T08:47:56.986Z,49.54
2019-04-11T08:48:54.511Z,47.94
2019-04-11T08:49:54.113Z,47.94
2019-04-11T08:50:54.577Z,48.35
2019-04-11T08:51:53.749Z,48.2
2019-04-11T08:52:54.176Z,48.28
2019-04-11T08:53:53.306Z,47.71
2019-04-11T08:54:53.532Z,48.1
2019-04-11T08:55:56.057Z,48.56
2019-04-11T08:56:53.577Z,49.16
2019-04-11T08:57:53.629Z,49.27
2019-04-11T08:58:53.313Z,48.08
2019-04-11T08:59:53.521Z,48.22
2019-04-11T09:00:56.011Z,48.42
2019-04-11T09:01:53.960Z,48.44
2019-04-11T09:02:53.475Z,49.08
2019-04-11T09:04:01.969Z,48.27
2019-04-11T09:05:03.076Z,47.19
2019-04-11T09:05:53.376Z,46.95
2019-04-11T09:06:53.315Z,47.51
2019-04-11T09:07:54.079Z,47.66
2019-04-11T09:08:54.489Z,47.5
2019-04-11T09:09:53.624Z,48.3
2019-04-11T09:10:53.794Z,46.24
2019-04-11T09:12:12.516Z,47.64
2019-04-11T09:12:53.344Z,47.56
2019-04-11T09:13:53.275Z,47.29
2019-04-11T09:14:53.320Z,47.01
2019-04-11T09:15:53.290Z,47.26
2019-04-11T09:16:54.142Z,47.33
2019-04-11T09:17:58.555Z,47.18
2019-04-11T09:18:54.378Z,47.69
2019-04-11T09:19:53.291Z,47.73
2019-04-11T09:20:53.899Z,47.59
2019-04-11T09:21:53.278Z,47.49
2019-04-11T09:22:53.408Z,47.04
2019-04-11T09:23:54.716Z,46.87
2019-04-11T09:24:53.292Z,47.45
2019-04-11T09:25:54.665Z,47.17
2019-04-11T09:26:58.296Z,47.45
2019-04-11T09:27:54.377Z,47.22
2019-04-11T09:28:53.543Z,47.07
2019-04-11T09:29:54.345Z,47.19
2019-04-11T09:30:53.255Z,46.29
2019-04-11T09:31:53.836Z,46.86
2019-04-11T09:32:53.353Z,47.03
2019-04-11T09:33:55.440Z,46.72
2019-04-11T09:34:54.239Z,46.02
2019-04-11T09:35:53.355Z,45.34
2019-04-11T09:36:53.427Z,44.23
2019-04-11T09:37:53.768Z,44.26
2019-04-11T09:38:53.264Z,43.33
2019-04-11T09:39:53.265Z,43.42
2019-04-11T09:40:54.207Z,42.22
2019-04-11T09:41:54.298Z,41.6
2019-04-11T09:42:53.489Z,42.01
2019-04-11T09:43:53.299Z,42.34
2019-04-11T09:44:53.273Z,41.65
2019-04-11T09:45:54.236Z,41.97
2019-04-11T09:46:54.859Z,41.56
2019-04-11T09:48:06.640Z,42.88
2019-04-11T09:48:53.810Z,42.76
2019-04-11T09:49:53.746Z,43.33
2019-04-11T09:50:53.265Z,43.74
2019-04-11T09:51:54.316Z,44.84
2019-04-11T09:52:54.406Z,44.98
2019-04-11T09:53:53.396Z,44.73
2019-04-11T09:54:53.307Z,44.7
2019-04-11T09:55:53.686Z,44.79
2019-04-11T09:56:53.967Z,44.44
2019-04-11T09:57:54.531Z,44.57
2019-04-11T09:58:53.252Z,44.14
2019-04-11T09:59:53.887Z,44.57
2019-04-11T10:00:53.269Z,44.04
2019-04-11T10:01:54.002Z,44.09
2019-04-11T10:02:53.256Z,43.62
2019-04-11T10:03:53.353Z,41.38
2019-04-11T10:04:54.340Z,41.64
2019-04-11T10:05:54.565Z,41.82
2019-04-11T10:06:53.350Z,41.41
2019-04-11T10:07:54.444Z,41.24
2019-04-11T10:08:53.349Z,41.39
2019-04-11T10:09:54.112Z,42.24
2019-04-11T10:10:53.327Z,42.75
2019-04-11T10:11:54.549Z,41.92
2019-04-11T10:12:54.176Z,41.89
2019-04-11T10:13:53.351Z,42.22
2019-04-11T10:14:53.592Z,41.79
2019-04-11T10:15:53.660Z,42.18
2019-04-11T10:16:53.210Z,42.57
2019-04-11T10:17:53.313Z,42.88
2019-04-11T10:18:53.596Z,43.32
2019-04-11T10:19:54.108Z,44.5
2019-04-11T10:20:53.211Z,44.79
2019-04-11T10:21:54.295Z,42.6
2019-04-11T10:22:54.414Z,43.03
2019-04-11T10:23:53.439Z,42.72
2019-04-11T10:24:53.265Z,42.48
2019-04-11T10:25:53.806Z,41.54
2019-04-11T10:26:53.168Z,42.48
2019-04-11T10:27:53.212Z,42.31
2019-04-11T10:28:53.593Z,42.51
2019-04-11T10:29:53.239Z,42.21
2019-04-11T10:30:53.696Z,42.02
2019-04-11T10:31:53.243Z,42.13
2019-04-11T10:32:53.265Z,42.96
2019-04-11T10:33:53.252Z,42.68
2019-04-11T10:34:54.145Z,43
2019-04-11T10:35:53.201Z,42.55
2019-04-11T10:36:53.677Z,42.54
2019-04-11T10:37:53.234Z,42.27
2019-04-11T10:38:55.079Z,41.66
2019-04-11T10:39:53.542Z,42.5
2019-04-11T10:40:54.460Z,41.95
2019-04-11T10:41:53.791Z,42.82
2019-04-11T10:42:53.910Z,42.3
2019-04-11T10:43:53.774Z,42.68
2019-04-11T10:44:54.054Z,41.65
2019-04-11T10:45:53.167Z,41.46
2019-04-11T10:46:53.198Z,41.55
2019-04-11T10:47:54.255Z,41.41
2019-04-11T10:48:53.223Z,41.37
2019-04-11T10:49:53.268Z,41.62
2019-04-11T10:50:53.226Z,41.7
2019-04-11T10:51:53.941Z,41.94
2019-04-11T10:52:53.183Z,41.58
2019-04-11T10:53:53.325Z,41.55
2019-04-11T10:54:54.057Z,42.19
2019-04-11T10:55:53.719Z,42.77
2019-04-11T10:56:53.669Z,41.62
2019-04-11T10:57:54.070Z,41
2019-04-11T10:58:55.265Z,41.59
2019-04-11T10:59:54.327Z,41.05
2019-04-11T11:00:53.613Z,41.3
2019-04-11T11:01:53.183Z,41.01
2019-04-11T11:02:53.622Z,40.84
2019-04-11T11:03:53.487Z,40.98
2019-04-11T11:04:53.230Z,39.79
2019-04-11T11:05:53.403Z,39.91
2019-04-11T11:06:53.842Z,41.17
2019-04-11T11:07:53.154Z,40.73
2019-04-11T11:08:53.395Z,41.26
2019-04-11T11:09:53.157Z,41.66
2019-04-11T11:10:53.108Z,41.68
2019-04-11T11:11:53.188Z,40.03
2019-04-11T11:12:53.769Z,41.22
2019-04-11T11:13:54.256Z,40.99
2019-04-11T11:14:53.541Z,40.4
2019-04-11T11:15:53.162Z,39.66
2019-04-11T11:16:53.167Z,40.74
2019-04-11T11:18:23.704Z,39.97
2019-04-11T11:19:19.293Z,40.23
2019-04-11T11:20:01.788Z,40.56
2019-04-11T11:20:57.019Z,40.77
2019-04-11T11:21:53.372Z,40.67
2019-04-11T11:22:53.712Z,40.81
2019-04-11T11:23:54.299Z,40.45
2019-04-11T11:24:53.246Z,40.98
2019-04-11T11:25:53.359Z,40.22
2019-04-11T11:26:55.536Z,40.02
2019-04-11T11:27:53.127Z,40.32
2019-04-11T11:28:53.124Z,39.55
2019-04-11T11:29:54.017Z,39.91
2019-04-11T11:30:54.118Z,39.4
2019-04-11T11:31:54.434Z,39.4
2019-04-11T11:32:53.846Z,39.7
2019-04-11T11:33:54.348Z,40.02
2019-04-11T11:34:53.447Z,40.59
2019-04-11T11:35:54.039Z,40.72
2019-04-11T11:36:54.783Z,40.87
2019-04-11T11:37:53.404Z,40.34
2019-04-11T11:38:54.160Z,41.15
2019-04-11T11:39:53.176Z,41.26
2019-04-11T11:40:54.216Z,39.8
2019-04-11T11:41:53.164Z,39.38
2019-04-11T11:42:53.106Z,38.75
2019-04-11T11:43:53.108Z,39.1
2019-04-11T11:44:53.208Z,39.01
2019-04-11T11:45:55.319Z,39.01
2019-04-11T11:46:53.972Z,38.72
2019-04-11T11:47:53.242Z,39.34
2019-04-11T11:48:54.226Z,39.69
2019-04-11T11:49:58.468Z,38.59
2019-04-11T11:50:53.156Z,39.02
2019-04-11T11:51:53.962Z,40.05
2019-04-11T11:52:53.228Z,37.69
2019-04-11T11:53:53.228Z,38.89
2019-04-11T11:54:53.641Z,39.98
2019-04-11T11:55:53.612Z,39.61
2019-04-11T11:56:54.035Z,39.61
2019-04-11T11:57:53.152Z,37.97
2019-04-11T11:58:56.927Z,37.94
2019-04-11T11:59:53.102Z,38.08
2019-04-11T12:00:55.312Z,37.54
2019-04-11T12:01:54.234Z,37.92
2019-04-11T12:02:54.330Z,37.65
2019-04-11T12:03:55.311Z,37.91
2019-04-11T12:04:54.015Z,38.26
2019-04-11T12:05:54.010Z,38.51
2019-04-11T12:06:58.305Z,38.14
2019-04-11T12:07:54.425Z,38.74
2019-04-11T12:08:53.984Z,37.9
2019-04-11T12:09:53.074Z,37.7
2019-04-11T12:10:53.387Z,37.95
2019-04-11T12:11:54.286Z,37.99
2019-04-11T12:12:54.113Z,37.92
2019-04-11T12:13:53.685Z,37.61
2019-04-11T12:14:53.769Z,37.31
2019-04-11T12:15:53.291Z,36.98
2019-04-11T12:16:58.660Z,37.92
2019-04-11T12:17:54.013Z,37.14
2019-04-11T12:18:54.907Z,37.2
2019-04-11T12:19:56.020Z,37.31
2019-04-11T12:20:54.551Z,37.55
2019-04-11T12:21:53.720Z,37.11
2019-04-11T12:22:53.686Z,37.27
2019-04-11T12:24:00.308Z,37.67
2019-04-11T12:24:53.407Z,38.17
2019-04-11T12:25:53.964Z,36.55
2019-04-11T12:26:53.957Z,36.65
2019-04-11T12:27:54.133Z,36.63
2019-04-11T12:28:54.078Z,37.19
2019-04-11T12:29:53.465Z,37.06
2019-04-11T12:30:57.785Z,36.87
2019-04-11T12:31:53.128Z,36.82
2019-04-11T12:32:53.030Z,35.22
2019-04-11T12:33:53.998Z,35.1
2019-04-11T12:34:53.018Z,36
2019-04-11T12:35:53.020Z,35.41
2019-04-11T12:36:54.631Z,36.63
2019-04-11T12:37:54.397Z,37.57
2019-04-11T12:38:54.822Z,36.58
2019-04-11T12:39:53.308Z,37.21
2019-04-11T12:40:53.055Z,37.35
2019-04-11T12:41:53.014Z,35.18
2019-04-11T12:42:53.049Z,36.14
2019-04-11T12:43:53.035Z,35.32
2019-04-11T12:44:53.017Z,34.43
2019-04-11T12:45:53.026Z,34.67
2019-04-11T12:46:53.427Z,34.56
2019-04-11T12:47:53.340Z,33.79
2019-04-11T12:48:53.090Z,35.33
2019-04-11T12:49:53.510Z,34
2019-04-11T12:50:53.037Z,34.73
2019-04-11T12:51:53.146Z,35.28
2019-04-11T12:52:53.059Z,35.28
2019-04-11T12:53:53.020Z,35.55
2019-04-11T12:54:53.068Z,34.52
2019-04-11T12:55:53.018Z,35.31
2019-04-11T12:56:53.079Z,35.44
2019-04-11T12:57:53.050Z,35.88